createdAt,value
2022-10-03T00:02:24.475Z,97.66
2022-10-03T00:05:23.772Z,98.05
2022-10-03T00:08:14.289Z,98.39
2022-10-03T00:11:25.612Z,97.85
2022-10-03T00:14:14.312Z,97.64
2022-10-03T00:17:26.938Z,97.23
2022-10-03T00:20:02.536Z,97.73
2022-10-03T00:22:43.887Z,97.35
2022-10-03T00:25:50.075Z,97.03
2022-10-03T00:29:16.838Z,96.55
2022-10-03T00:32:24.732Z,97.11
2022-10-03T00:34:54.486Z,96.70
2022-10-03T00:37:44.784Z,96.45
2022-10-03T00:40:47.061Z,96.75
2022-10-03T00:43:41.549Z,96.40
2022-10-03T00:46:30.379Z,96.29
2022-10-03T00:49:37.804Z,96.42
2022-10-03T00:52:33.836Z,96.54
2022-10-03T00:55:19.257Z,96.92
2022-10-03T00:58:26.120Z,96.89
2022-10-03T01:01:05.365Z,97.35
2022-10-03T01:03:58.954Z,96.33
2022-10-03T01:06:36.789Z,96.79
2022-10-03T01:09:31.140Z,96.11
2022-10-03T01:12:21.251Z,96.24
2022-10-03T01:15:24.683Z,95.99
2022-10-03T01:18:13.405Z,95.67
2022-10-03T01:21:12.449Z,95.43
2022-10-03T01:24:04.987Z,96.50
2022-10-03T01:26:43.866Z,96.40
2022-10-03T01:29:41.711Z,95.81
2022-10-03T01:32:25.988Z,96.10
2022-10-03T01:35:11.075Z,96.52
2022-10-03T01:38:08.918Z,95.96
2022-10-03T01:41:17.559Z,96.21
2022-10-03T01:44:13.359Z,96.30
2022-10-03T01:46:48.414Z,96.05
2022-10-03T01:49:38.486Z,96.19
2022-10-03T01:52:21.318Z,95.71
2022-10-03T01:55:15.883Z,95.72
2022-10-03T01:58:17.555Z,95.68
2022-10-03T02:01:00.654Z,95.42
2022-10-03T02:03:52.201Z,95.32
2022-10-03T02:07:05.791Z,94.80
2022-10-03T02:10:09.758Z,94.87
2022-10-03T02:13:06.095Z,95.55
2022-10-03T02:16:06.099Z,95.24
2022-10-03T02:19:09.297Z,95.12
2022-10-03T02:21:54.589Z,94.94
2022-10-03T02:25:06.155Z,94.48
2022-10-03T02:28:35.182Z,94.86
2022-10-03T02:31:23.469Z,94.89
2022-10-03T02:34:16.054Z,94.78
2022-10-03T02:36:48.867Z,94.61
2022-10-03T02:39:23.192Z,94.43
2022-10-03T02:42:25.214Z,95.31
2022-10-03T02:45:13.238Z,95.96
2022-10-03T02:48:33.575Z,95.67
2022-10-03T02:52:08.633Z,95.67
2022-10-03T02:54:57.231Z,95.45
2022-10-03T02:57:51.883Z,95.10
2022-10-03T03:00:31.659Z,94.65
2022-10-03T03:03:34.976Z,94.29
2022-10-03T03:06:33.718Z,94.23
2022-10-03T03:09:18.896Z,94.68
2022-10-03T03:12:14.991Z,93.99
2022-10-03T03:14:54.328Z,94.28
2022-10-03T03:17:36.803Z,93.95
2022-10-03T03:20:14.823Z,93.71
2022-10-03T03:22:56.024Z,93.64
2022-10-03T03:26:16.011Z,94.22
2022-10-03T03:28:57.991Z,93.39
2022-10-03T03:31:56.551Z,93.47
2022-10-03T03:34:44.219Z,93.32
2022-10-03T03:38:01.283Z,93.37
2022-10-03T03:40:59.090Z,92.57
2022-10-03T03:43:55.643Z,92.34
2022-10-03T03:47:09.328Z,92.40
2022-10-03T03:50:07.177Z,92.39
2022-10-03T03:53:18.218Z,92.37
2022-10-03T03:56:06.310Z,92.15
2022-10-03T03:59:03.337Z,92.03
2022-10-03T04:01:38.840Z,91.18
2022-10-03T04:04:23.308Z,90.88
2022-10-03T04:07:27.867Z,90.71
2022-10-03T04:10:56.687Z,90.92
2022-10-03T04:13:37.117Z,90.75
2022-10-03T04:16:54.883Z,90.22
2022-10-03T04:20:11.503Z,90.11
2022-10-03T04:23:02.136Z,90.03
2022-10-03T04:25:58.222Z,90.46
2022-10-03T04:28:48.427Z,90.03
2022-10-03T04:32:01.836Z,89.16
2022-10-03T04:35:02.557Z,88.97
2022-10-03T04:37:52.713Z,90.16
2022-10-03T04:40:27.454Z,89.06
2022-10-03T04:43:40.500Z,88.99
2022-10-03T04:46:53.048Z,89.31
2022-10-03T04:49:46.283Z,89.46
2022-10-03T04:52:42.037Z,89.32
2022-10-03T04:55:47.938Z,89.08
2022-10-03T04:59:27.557Z,90.48
2022-10-03T05:02:02.479Z,90.59
2022-10-03T05:04:31.152Z,90.44
2022-10-03T05:07:42.111Z,89.66
2022-10-03T05:10:40.225Z,89.90
2022-10-03T05:13:51.570Z,89.93
2022-10-03T05:16:32.058Z,88.97
2022-10-03T05:19:41.715Z,89.55
2022-10-03T05:22:23.922Z,89.31
2022-10-03T05:25:18.771Z,89.33
2022-10-03T05:28:11.600Z,90.01
2022-10-03T05:31:29.291Z,90.62
2022-10-03T05:34:26.576Z,91.97
2022-10-03T05:37:25.327Z,92.56
2022-10-03T05:40:00.019Z,93.31
2022-10-03T05:42:51.403Z,93.39
2022-10-03T05:45:52.367Z,93.46
2022-10-03T05:49:10.727Z,93.08
2022-10-03T05:52:16.445Z,92.46
2022-10-03T05:55:19.123Z,92.51
2022-10-03T05:58:23.958Z,92.66
2022-10-03T06:01:10.085Z,92.69
2022-10-03T06:04:22.770Z,93.21
2022-10-03T06:07:20.802Z,92.94
2022-10-03T06:09:53.720Z,93.49
2022-10-03T06:12:32.071Z,93.13
2022-10-03T06:15:27.076Z,92.64
2022-10-03T06:18:16.663Z,91.66
2022-10-03T06:21:32.889Z,90.03
2022-10-03T06:24:39.512Z,89.46
2022-10-03T06:27:38.850Z,88.57
2022-10-03T06:30:37.240Z,88.57
2022-10-03T06:33:26.218Z,88.56
2022-10-03T06:36:08.333Z,87.84
2022-10-03T06:39:09.601Z,87.31
2022-10-03T06:42:07.453Z,87.68
2022-10-03T06:45:11.544Z,87.28
2022-10-03T06:48:24.663Z,85.81
2022-10-03T06:51:30.384Z,85.04
2022-10-03T06:54:30.853Z,81.79
2022-10-03T06:57:04.663Z,76.14
2022-10-03T06:59:58.617Z,71.16
2022-10-03T07:02:49.058Z,67.95
2022-10-03T07:05:46.518Z,65.96
2022-10-03T07:09:00.726Z,65.58
2022-10-03T07:12:21.164Z,65.73
2022-10-03T07:15:50.088Z,62.99
2022-10-03T07:18:35.637Z,62.94
2022-10-03T07:21:33.750Z,60.62
2022-10-03T07:24:34.627Z,59.38
2022-10-03T07:27:40.732Z,60.11
2022-10-03T07:30:27.007Z,60.12
2022-10-03T07:33:06.147Z,60.11
2022-10-03T07:36:09.008Z,61.77
2022-10-03T07:39:23.299Z,61.36
2022-10-03T07:42:17.462Z,61.21
2022-10-03T07:45:23.301Z,59.67
2022-10-03T07:48:33.990Z,56.67
2022-10-03T07:51:10.878Z,56.79
2022-10-03T07:54:24.694Z,57.42
2022-10-03T07:57:21.952Z,58.43
2022-10-03T08:00:13.671Z,59.54
2022-10-03T08:03:14.974Z,59.44
2022-10-03T08:06:15.975Z,60.02
2022-10-03T08:09:00.784Z,60.60
2022-10-03T08:11:46.488Z,59.53
2022-10-03T08:15:05.349Z,59.38
2022-10-03T08:17:47.621Z,58.61
2022-10-03T08:20:26.277Z,58.32
2022-10-03T08:23:29.798Z,55.91
2022-10-03T08:26:34.068Z,54.18
2022-10-03T08:29:45.826Z,55.18
2022-10-03T08:33:19.755Z,57.02
2022-10-03T08:35:58.407Z,55.95
2022-10-03T08:38:56.677Z,55.47
2022-10-03T08:42:14.964Z,56.73
2022-10-03T08:45:27.810Z,58.69
2022-10-03T08:48:20.108Z,59.50
2022-10-03T08:51:31.622Z,59.83
2022-10-03T08:54:03.009Z,62.34
2022-10-03T09:00:41.863Z,59.76
2022-10-03T09:03:57.600Z,58.59
2022-10-03T09:07:16.143Z,56.96
2022-10-03T09:10:07.719Z,54.89
2022-10-03T09:13:20.714Z,53.42
2022-10-03T09:16:45.550Z,53.53
2022-10-03T09:20:09.300Z,55.23
2022-10-03T09:23:03.765Z,57.25
2022-10-03T09:26:27.828Z,57.65
2022-10-03T09:29:35.234Z,55.70
2022-10-03T09:32:30.029Z,54.82
2022-10-03T09:35:34.826Z,55.71
2022-10-03T09:38:23.166Z,56.13
2022-10-03T09:41:32.536Z,56.83
2022-10-03T09:44:40.089Z,58.23
2022-10-03T09:47:49.397Z,59.67
2022-10-03T09:50:52.048Z,60.28
2022-10-03T09:53:44.692Z,59.51
2022-10-03T09:56:40.180Z,58.76
2022-10-03T10:00:08.687Z,57.02
2022-10-03T10:03:21.890Z,57.32
2022-10-03T10:06:01.318Z,57.73
2022-10-03T10:09:10.111Z,56.19
2022-10-03T10:12:23.886Z,56.54
2022-10-03T10:15:26.630Z,58.48
2022-10-03T10:18:15.863Z,57.56
2022-10-03T10:21:06.638Z,57.76
2022-10-03T10:24:21.796Z,58.33
2022-10-03T10:27:29.940Z,60.19
2022-10-03T10:30:39.178Z,60.93
2022-10-03T10:33:24.541Z,60.99
2022-10-03T10:36:38.902Z,61.00
2022-10-03T10:39:41.855Z,61.68
2022-10-03T10:42:30.572Z,60.55
2022-10-03T10:45:53.803Z,61.09
2022-10-03T10:48:35.702Z,61.66
2022-10-03T10:51:53.021Z,59.03
2022-10-03T10:55:06.969Z,55.53
2022-10-03T10:58:17.912Z,53.08
2022-10-03T11:01:09.324Z,52.33
2022-10-03T11:04:20.184Z,52.06
2022-10-03T11:07:21.700Z,52.57
2022-10-03T11:10:01.766Z,52.47
2022-10-03T11:12:48.059Z,54.08
2022-10-03T11:16:04.758Z,54.33
2022-10-03T11:19:03.929Z,54.28
2022-10-03T11:22:00.138Z,55.23
2022-10-03T11:25:07.850Z,54.61
2022-10-03T11:28:33.034Z,50.80
2022-10-03T11:32:15.058Z,45.99
2022-10-03T11:35:25.890Z,45.81
2022-10-03T11:38:14.184Z,42.51
2022-10-03T11:41:01.144Z,41.06
2022-10-03T11:44:11.648Z,39.92
2022-10-03T11:47:18.684Z,39.17
2022-10-03T11:50:14.478Z,37.74
2022-10-03T11:52:59.771Z,36.51
2022-10-03T11:55:42.208Z,39.95
2022-10-03T11:58:32.318Z,36.29
2022-10-03T12:01:51.329Z,35.52
2022-10-03T12:05:04.073Z,38.83
2022-10-03T12:07:58.440Z,37.88
2022-10-03T12:10:46.029Z,41.98
2022-10-03T12:13:21.936Z,47.51
2022-10-03T12:15:54.475Z,53.09
2022-10-03T12:18:43.055Z,54.10
2022-10-03T12:21:54.311Z,57.47
2022-10-03T12:24:33.177Z,60.21
2022-10-03T12:27:34.308Z,61.35
2022-10-03T12:30:14.499Z,64.44
2022-10-03T12:33:28.758Z,63.59
2022-10-03T12:36:23.364Z,65.22
2022-10-03T12:39:45.467Z,67.11
2022-10-03T12:42:41.527Z,67.60
2022-10-03T12:45:48.316Z,68.60
2022-10-03T12:48:24.312Z,68.39
2022-10-03T12:51:23.949Z,67.50
2022-10-03T12:54:27.586Z,69.15
2022-10-03T12:57:45.145Z,68.75
2022-10-03T13:00:24.349Z,67.02
2022-10-03T13:03:09.396Z,68.25
2022-10-03T13:06:02.816Z,65.62
2022-10-03T13:08:56.288Z,65.74
2022-10-03T13:11:57.205Z,64.32
2022-10-03T13:14:50.177Z,62.93
2022-10-03T13:17:51.741Z,61.48
2022-10-03T13:20:37.188Z,63.42
2022-10-03T13:23:42.894Z,61.93
2022-10-03T13:26:24.584Z,63.81
2022-10-03T13:32:32.983Z,62.63
2022-10-03T13:35:33.713Z,62.63
2022-10-03T13:38:13.821Z,63.63
2022-10-03T13:40:56.737Z,62.91
2022-10-03T13:43:36.335Z,61.99
2022-10-03T13:46:13.317Z,62.57
2022-10-03T13:48:47.643Z,63.49
2022-10-03T13:51:50.566Z,59.59
2022-10-03T13:55:11.635Z,59.91
2022-10-03T13:58:14.333Z,60.45
2022-10-03T14:01:13.952Z,60.52
2022-10-03T14:04:27.274Z,59.86
2022-10-03T14:07:29.532Z,58.72
2022-10-03T14:11:04.520Z,58.49
2022-10-03T14:13:36.653Z,60.26
2022-10-03T14:16:30.408Z,58.89
2022-10-03T14:19:17.128Z,58.96
2022-10-03T14:22:02.768Z,61.25
2022-10-03T14:25:05.429Z,62.93
2022-10-03T14:27:35.371Z,64.31
2022-10-03T14:30:18.620Z,66.12
2022-10-03T14:33:31.595Z,66.70
2022-10-03T14:36:44.133Z,68.00
2022-10-03T14:39:41.262Z,68.15
2022-10-03T14:42:44.784Z,67.20
2022-10-03T14:45:21.634Z,68.75
2022-10-03T14:47:53.917Z,70.85
2022-10-03T14:50:30.913Z,68.31
2022-10-03T14:53:34.030Z,68.27
2022-10-03T14:56:12.868Z,69.52
2022-10-03T14:58:53.953Z,69.10
2022-10-03T15:01:29.026Z,69.43
2022-10-03T15:04:32.405Z,69.45
2022-10-03T15:07:15.837Z,69.82
2022-10-03T15:09:50.420Z,70.78
2022-10-03T15:12:31.285Z,70.44
2022-10-03T15:15:07.412Z,70.04
2022-10-03T15:17:49.797Z,70.35
2022-10-03T15:20:27.041Z,70.53
2022-10-03T15:22:58.617Z,71.54
2022-10-03T15:25:40.094Z,69.57
2022-10-03T15:28:21.399Z,69.36
2022-10-03T15:30:53.574Z,71.16
2022-10-03T15:33:33.998Z,68.99
2022-10-03T15:36:26.956Z,68.18
2022-10-03T15:39:02.327Z,69.19
2022-10-03T15:41:50.523Z,68.87
2022-10-03T15:44:33.950Z,68.22
2022-10-03T15:47:27.325Z,68.28
2022-10-03T15:50:22.413Z,67.97
2022-10-03T15:53:35.589Z,68.11
2022-10-03T15:56:24.138Z,69.32
2022-10-03T15:59:01.449Z,69.19
2022-10-03T16:01:40.046Z,70.28
2022-10-03T16:04:35.607Z,71.07
2022-10-03T16:07:55.078Z,71.68
2022-10-03T16:10:30.231Z,73.79
2022-10-03T16:13:10.421Z,76.56
2022-10-03T16:16:23.904Z,77.64
2022-10-03T16:19:22.436Z,80.35
2022-10-03T16:22:13.487Z,80.77
2022-10-03T16:25:05.756Z,81.62
2022-10-03T16:27:55.826Z,82.86
2022-10-03T16:30:30.059Z,83.64
2022-10-03T16:33:16.362Z,83.18
2022-10-03T16:36:16.790Z,82.89
2022-10-03T16:38:54.286Z,83.29
2022-10-03T16:41:31.977Z,83.13
2022-10-03T16:44:23.275Z,82.98
2022-10-03T16:46:59.814Z,83.13
2022-10-03T16:49:53.532Z,82.81
2022-10-03T16:52:35.727Z,81.78
2022-10-03T16:55:26.518Z,83.10
2022-10-03T16:58:00.088Z,82.93
2022-10-03T17:01:09.029Z,82.52
2022-10-03T17:04:17.690Z,81.67
2022-10-03T17:06:55.833Z,82.27
2022-10-03T17:09:37.279Z,82.25
2022-10-03T17:12:13.681Z,82.20
2022-10-03T17:14:44.670Z,82.38
2022-10-03T17:17:31.801Z,81.34
2022-10-03T17:20:14.785Z,81.33
2022-10-03T17:22:45.870Z,81.79
2022-10-03T17:25:19.104Z,81.53
2022-10-03T17:27:52.539Z,81.60
2022-10-03T17:30:43.571Z,80.68
2022-10-03T17:33:25.979Z,81.03
2022-10-03T17:36:15.431Z,81.30
2022-10-03T17:39:10.556Z,81.91
2022-10-03T17:42:01.878Z,82.38
2022-10-03T17:44:52.808Z,83.18
2022-10-03T17:47:57.063Z,82.27
2022-10-03T17:50:32.047Z,82.98
2022-10-03T17:53:00.733Z,83.25
2022-10-03T17:55:41.879Z,83.43
2022-10-03T17:58:19.727Z,82.75
2022-10-03T18:00:46.823Z,84.32
2022-10-03T18:03:30.934Z,83.05
2022-10-03T18:06:31.874Z,84.11
2022-10-03T18:09:07.437Z,84.41
2022-10-03T18:11:38.010Z,85.16
2022-10-03T18:14:20.738Z,85.27
2022-10-03T18:17:09.300Z,85.79
2022-10-03T18:19:51.386Z,85.87
2022-10-03T18:22:40.869Z,86.16
2022-10-03T18:26:19.665Z,86.19
2022-10-03T18:29:23.676Z,86.25
2022-10-03T18:32:12.872Z,86.19
2022-10-03T18:34:55.578Z,85.86
2022-10-03T18:37:28.692Z,86.27
2022-10-03T18:40:48.518Z,85.43
2022-10-03T18:43:37.035Z,85.77
2022-10-03T18:46:22.787Z,86.48
2022-10-03T18:49:31.479Z,86.51
2022-10-03T18:52:24.110Z,85.67
2022-10-03T18:55:05.267Z,85.69
2022-10-03T18:57:41.350Z,85.83
2022-10-03T19:00:21.511Z,85.05
2022-10-03T19:03:20.029Z,84.88
2022-10-03T19:05:58.511Z,84.80
2022-10-03T19:08:59.363Z,84.15
2022-10-03T19:11:42.312Z,84.55
2022-10-03T19:14:29.241Z,84.51
2022-10-03T19:17:11.646Z,84.41
2022-10-03T19:20:12.231Z,84.47
2022-10-03T19:22:43.662Z,85.72
2022-10-03T19:25:23.712Z,84.39
2022-10-03T19:28:08.791Z,84.28
2022-10-03T19:30:37.353Z,84.79
2022-10-03T19:33:25.892Z,84.09
2022-10-03T19:36:03.463Z,84.16
2022-10-03T19:38:40.184Z,84.14
2022-10-03T19:41:26.513Z,84.39
2022-10-03T19:43:57.215Z,84.31
2022-10-03T19:47:05.518Z,83.96
2022-10-03T19:50:02.040Z,84.12
2022-10-03T19:52:41.848Z,84.27
2022-10-03T19:55:17.589Z,84.80
2022-10-03T19:57:58.984Z,84.93
2022-10-03T20:00:39.470Z,85.02
2022-10-03T20:03:25.446Z,84.88
2022-10-03T20:06:26.869Z,84.47
2022-10-03T20:09:08.572Z,85.07
2022-10-03T20:11:56.978Z,86.07
2022-10-03T20:14:35.978Z,85.86
2022-10-03T20:17:25.385Z,85.58
2022-10-03T20:20:01.707Z,86.44
2022-10-03T20:22:36.934Z,86.87
2022-10-03T20:25:21.641Z,86.85
2022-10-03T20:27:55.979Z,86.29
2022-10-03T20:30:46.155Z,86.46
2022-10-03T20:33:27.639Z,86.83
2022-10-03T20:36:18.056Z,86.47
2022-10-03T20:39:04.603Z,86.95
2022-10-03T20:42:05.518Z,87.12
2022-10-03T20:45:03.877Z,87.61
2022-10-03T20:48:06.359Z,87.58
2022-10-03T20:50:49.689Z,87.76
2022-10-03T20:53:25.353Z,87.44
2022-10-03T20:55:58.095Z,88.21
2022-10-03T20:58:30.355Z,88.48
2022-10-03T21:01:09.977Z,87.85
2022-10-03T21:04:24.271Z,87.32
2022-10-03T21:07:06.364Z,87.92
2022-10-03T21:09:50.613Z,88.09
2022-10-03T21:12:28.352Z,88.08
2022-10-03T21:15:17.495Z,88.08
2022-10-03T21:17:46.970Z,88.14
2022-10-03T21:20:32.253Z,88.56
2022-10-03T21:23:24.012Z,88.43
2022-10-03T21:25:58.967Z,88.33
2022-10-03T21:28:36.324Z,88.08
2022-10-03T21:31:22.149Z,88.29
2022-10-03T21:34:15.924Z,88.39
2022-10-03T21:36:56.123Z,87.92
2022-10-03T21:39:56.106Z,88.44
2022-10-03T21:42:27.614Z,87.98
2022-10-03T21:44:54.711Z,89.08
2022-10-03T21:47:46.543Z,88.69
2022-10-03T21:50:31.942Z,88.64
2022-10-03T21:53:51.797Z,87.89
2022-10-03T21:56:56.098Z,87.98
2022-10-03T21:59:57.553Z,87.42
2022-10-03T22:02:55.942Z,87.49
2022-10-03T22:05:40.669Z,87.63
2022-10-03T22:08:40.626Z,87.32
2022-10-03T22:11:14.751Z,88.35
2022-10-03T22:13:55.194Z,88.10
2022-10-03T22:16:57.085Z,88.49
2022-10-03T22:19:59.211Z,89.13
2022-10-03T22:22:36.483Z,89.55
2022-10-03T22:25:39.452Z,89.50
2022-10-03T22:29:07.284Z,89.45
2022-10-03T22:31:40.514Z,89.89
2022-10-03T22:34:13.570Z,90.60
2022-10-03T22:36:41.709Z,89.84
2022-10-03T22:39:12.814Z,89.58
2022-10-03T22:41:44.250Z,89.33
2022-10-03T22:44:15.179Z,89.93
2022-10-03T22:46:50.253Z,89.88
2022-10-03T22:49:25.744Z,90.03
2022-10-03T22:51:57.152Z,90.02
2022-10-03T22:54:35.089Z,88.97
2022-10-03T22:57:12.269Z,88.95
2022-10-03T22:59:49.793Z,88.23
2022-10-03T23:02:20.114Z,88.26
2022-10-03T23:05:01.002Z,87.79
2022-10-03T23:08:13.273Z,86.82
2022-10-03T23:10:55.027Z,87.08
2022-10-03T23:13:41.063Z,87.14
2022-10-03T23:16:28.794Z,87.18
2022-10-03T23:19:44.391Z,86.90
2022-10-03T23:22:18.358Z,87.06
2022-10-03T23:25:06.079Z,87.00
2022-10-03T23:28:19.869Z,86.96
2022-10-03T23:30:52.098Z,87.33
2022-10-03T23:33:33.677Z,86.70
2022-10-03T23:36:30.397Z,86.44
2022-10-03T23:39:01.620Z,86.94
2022-10-03T23:41:34.508Z,86.28
2022-10-03T23:44:02.638Z,86.65
2022-10-03T23:46:31.840Z,86.62
2022-10-03T23:49:02.608Z,86.27
2022-10-03T23:51:35.682Z,86.70
2022-10-03T23:54:08.590Z,86.14
2022-10-03T23:56:44.552Z,85.54
2022-10-03T23:59:14.718Z,85.66
